Time;durP1;ratioP1;P1;durP2;ratioP2;P2;SDS_P1;SDS_P2;PMS_P1;PMS_P2;Temp;Humidity;BMP_temperature;BMP_pressure;BME280_temperature;BME280_humidity;BME280_pressure;Samples;Min_cycle;Max_cycle;Signal;HPM_P1;HPM_P2
2022/06/14 00:03:14;;;;;;;7.10;6.40;;;;;;;-143.84;69.48;45050.97;5007307;28;20968;-76
2022/06/14 00:05:43;;;;;;;15.33;6.87;;;;;;;-143.84;69.43;45018.59;5007381;28;20862;-76
2022/06/14 00:08:10;;;;;;;7.97;7.20;;;;;;;-143.84;69.61;45047.16;5008166;28;20455;-76
2022/06/14 00:10:38;;;;;;;12.33;6.90;;;;;;;-143.84;70.13;45041.44;5008199;28;20435;-76
2022/06/14 00:13:06;;;;;;;9.73;6.70;;;;;;;-143.84;70.10;45068.13;5008311;28;20432;-76
2022/06/14 00:15:34;;;;;;;7.67;6.97;;;;;;;-143.84;70.26;45028.13;5007978;28;20486;-76
2022/06/14 00:18:01;;;;;;;6.57;5.93;;;;;;;-143.84;70.13;45024.31;5008073;28;21003;-76
2022/06/14 00:20:28;;;;;;;7.63;6.63;;;;;;;-143.84;70.40;45033.84;5007802;28;20796;-76
2022/06/14 00:22:57;;;;;;;7.17;6.47;;;;;;;-143.84;70.81;45022.41;5008332;28;20439;-76
2022/06/14 00:25:27;;;;;;;9.43;7.23;;;;;;;-143.84;70.97;45070.00;5009044;28;20458;-77
2022/06/14 00:27:55;;;;;;;13.27;7.53;;;;;;;-143.84;71.18;45039.53;5008948;28;20443;-76
2022/06/14 00:30:24;;;;;;;8.30;7.60;;;;;;;-143.84;71.62;45028.13;5009157;28;20929;-77
2022/06/14 00:32:52;;;;;;;7.67;6.93;;;;;;;-143.84;71.65;45039.53;5006500;28;20447;-76
2022/06/14 00:35:19;;;;;;;8.13;7.20;;;;;;;-143.84;71.82;45031.94;5008227;28;20487;-76
2022/06/14 00:37:47;;;;;;;8.57;6.50;;;;;;;-143.84;72.30;45056.69;5008603;28;20439;-75
2022/06/14 00:40:19;;;;;;;9.57;7.30;;;;;;;-143.84;72.90;45035.75;5009087;28;20428;-76
2022/06/14 00:42:46;;;;;;;8.03;6.70;;;;;;;-143.84;72.98;45045.25;5008900;28;20447;-76
2022/06/14 00:45:48;;;;;;;12.80;6.97;;;;;;;-143.84;73.45;45047.16;5009075;28;20436;-77
2022/06/14 00:48:19;;;;;;;9.23;7.87;;;;;;;-143.84;73.76;45047.16;5008709;28;20455;-76
2022/06/14 00:50:57;;;;;;;8.80;7.50;;;;;;;-143.84;73.67;45068.13;5006845;28;20447;-77
2022/06/14 00:53:27;;;;;;;11.13;7.03;;;;;;;-143.84;73.96;45033.84;5008356;28;20435;-76
2022/06/14 00:56:03;;;;;;;10.90;8.30;;;;;;;-143.84;74.50;45030.03;5009135;28;20479;-77
2022/06/14 00:58:36;;;;;;;9.40;8.13;;;;;;;-143.84;74.57;45052.88;5009010;28;20436;-76
2022/06/14 01:01:08;;;;;;;9.03;7.90;;;;;;;-143.84;74.27;45054.78;5008896;28;20432;-76
2022/06/14 01:03:40;;;;;;;15.03;7.30;;;;;;;-143.84;74.60;45049.06;5008450;28;20508;-76
2022/06/14 01:06:13;;;;;;;10.87;7.20;;;;;;;-143.84;74.34;45043.34;5010687;28;20518;-76
2022/06/14 01:08:45;;;;;;;9.13;7.90;;;;;;;-143.84;74.08;45077.63;5012013;28;20522;-75
2022/06/14 01:11:21;;;;;;;10.80;7.50;;;;;;;-143.84;74.01;45071.91;5011363;28;20506;-76
2022/06/14 01:13:48;;;;;;;7.20;6.60;;;;;;;-143.84;73.99;45033.84;5011807;28;20474;-76
2022/06/14 01:16:16;;;;;;;11.53;7.40;;;;;;;-143.84;73.93;45052.88;5011371;28;20496;-76
2022/06/14 01:18:44;;;;;;;8.10;7.00;;;;;;;-143.84;73.74;45068.13;5011483;28;20416;-76
2022/06/14 01:21:12;;;;;;;11.87;7.17;;;;;;;-143.84;73.70;45062.41;5011244;28;20536;-76
2022/06/14 01:23:40;;;;;;;10.90;7.73;;;;;;;-143.84;73.39;45039.53;5011354;28;20563;-76
2022/06/14 01:26:13;;;;;;;8.00;7.20;;;;;;;-143.84;73.45;45049.06;5011196;28;20443;-75
2022/06/14 01:28:44;;;;;;;7.53;6.93;;;;;;;-143.84;73.46;45064.31;5011083;28;20435;-76
2022/06/14 01:31:13;;;;;;;18.83;7.30;;;;;;;-143.84;73.15;45043.34;5011196;28;20442;-76
2022/06/14 01:33:44;;;;;;;7.77;6.70;;;;;;;-143.84;72.90;45033.84;5011534;28;20451;-76
2022/06/14 01:36:17;;;;;;;8.70;7.90;;;;;;;-143.84;72.94;45050.97;5011697;28;20471;-76
2022/06/14 01:38:48;;;;;;;8.90;8.00;;;;;;;-143.84;72.51;45037.66;5011252;28;20448;-76
2022/06/14 01:41:28;;;;;;;11.40;6.87;;;;;;;-143.84;72.44;45043.34;5011933;28;20448;-76
2022/06/14 01:44:12;;;;;;;8.13;7.43;;;;;;;-143.84;72.18;45039.53;5011195;28;20514;-77
2022/06/14 01:46:48;;;;;;;8.83;7.43;;;;;;;-143.84;72.18;45041.44;5008865;28;20436;-76
2022/06/14 01:52:20;;;;;;;8.90;8.03;;;;;;;-143.84;72.27;45033.84;5009648;28;20907;-76
2022/06/14 01:54:57;;;;;;;9.87;8.83;;;;;;;-143.84;72.31;45028.13;5010001;28;20483;-77
2022/06/14 01:57:34;;;;;;;8.97;8.03;;;;;;;-143.84;72.20;45064.31;5007881;28;20451;-76
2022/06/14 02:00:08;;;;;;;8.13;7.03;;;;;;;-143.84;72.07;45037.66;5009988;28;20788;-76
2022/06/14 02:02:40;;;;;;;8.27;7.50;;;;;;;-143.84;71.96;45035.75;5009979;28;20964;-76
2022/06/14 02:05:19;;;;;;;11.30;7.37;;;;;;;-143.84;72.12;45050.97;5009900;28;20471;-76
2022/06/14 02:07:54;;;;;;;7.67;7.00;;;;;;;-143.84;72.03;45037.66;5010701;28;20499;-75
2022/06/14 02:10:32;;;;;;;8.13;7.33;;;;;;;-143.84;72.00;45054.78;5010820;28;20427;-76
2022/06/14 02:13:04;;;;;;;11.60;7.53;;;;;;;-143.84;71.59;45045.25;5010314;28;20493;-76
2022/06/14 02:15:35;;;;;;;7.73;7.07;;;;;;;-143.84;71.45;45050.97;5010374;28;20991;-77
2022/06/14 02:18:12;;;;;;;8.00;7.27;;;;;;;-143.84;72.19;45035.75;5009528;28;20448;-76
2022/06/14 02:20:46;;;;;;;8.03;7.13;;;;;;;-143.84;72.54;45018.59;5010288;28;20994;-76
2022/06/14 02:23:15;;;;;;;10.57;8.00;;;;;;;-143.84;72.74;45045.25;5010679;28;20431;-75
2022/06/14 02:25:51;;;;;;;9.07;8.17;;;;;;;-143.84;72.79;45035.75;5010467;28;20432;-76
2022/06/14 02:28:22;;;;;;;8.17;7.50;;;;;;;-143.84;72.63;45022.41;5010768;28;20489;-76
2022/06/14 02:30:55;;;;;;;8.20;7.47;;;;;;;-143.84;73.09;45037.66;5011175;28;20505;-76
2022/06/14 02:33:26;;;;;;;7.73;7.13;;;;;;;-143.84;73.53;45026.22;5010700;28;20435;-76
2022/06/14 02:35:59;;;;;;;16.27;8.33;;;;;;;-143.84;73.78;45028.13;5010909;28;20546;-77
2022/06/14 02:38:34;;;;;;;9.47;7.97;;;;;;;-143.84;74.35;45052.88;5010839;28;20471;-76
2022/06/14 02:41:08;;;;;;;12.37;7.90;;;;;;;-143.84;74.25;45050.97;5010693;28;20501;-76
2022/06/14 02:43:40;;;;;;;9.70;7.93;;;;;;;-143.84;73.72;45041.44;5010857;28;20499;-76
2022/06/14 02:46:11;;;;;;;20.10;8.30;;;;;;;-143.84;73.45;45049.06;5010665;28;20436;-76
2022/06/14 02:48:43;;;;;;;11.17;8.20;;;;;;;-143.84;72.97;45064.31;5010527;28;20428;-76
2022/06/14 02:51:17;;;;;;;9.13;7.43;;;;;;;-143.84;72.33;45043.34;5009911;28;20954;-75
2022/06/14 02:53:51;;;;;;;8.87;8.07;;;;;;;-143.84;72.58;45047.16;5010181;28;20501;-76
2022/06/14 02:56:26;;;;;;;8.73;7.93;;;;;;;-143.84;72.22;45028.13;5010063;28;20534;-76
2022/06/14 02:58:59;;;;;;;8.40;7.70;;;;;;;-143.84;72.07;45043.34;5010509;28;20508;-76
2022/06/14 03:01:30;;;;;;;12.30;7.90;;;;;;;-143.84;72.39;45056.69;5010076;28;20527;-76
2022/06/14 03:04:02;;;;;;;8.10;7.30;;;;;;;-143.84;72.50;45056.69;5009826;28;20567;-76
2022/06/14 03:06:34;;;;;;;8.77;7.43;;;;;;;-143.84;72.38;45060.50;5009645;28;20443;-76
2022/06/14 03:09:10;;;;;;;9.60;7.30;;;;;;;-143.84;72.59;45047.16;5010104;28;20440;-76
2022/06/14 03:11:51;;;;;;;10.37;7.80;;;;;;;-143.84;72.14;45035.75;5010443;28;20447;-76
2022/06/14 03:14:29;;;;;;;9.40;8.50;;;;;;;-143.84;72.48;45028.13;5011030;28;20492;-77
2022/06/14 03:17:09;;;;;;;9.13;8.23;;;;;;;-143.84;72.54;45041.44;5010050;28;20788;-76
2022/06/14 03:19:43;;;;;;;10.30;8.20;;;;;;;-143.84;72.58;45049.06;5010007;28;20518;-76
2022/06/14 03:22:19;;;;;;;12.13;7.87;;;;;;;-143.84;72.02;45056.69;5007559;28;20883;-77
2022/06/14 03:24:52;;;;;;;8.47;7.77;;;;;;;-143.84;71.89;45035.75;5009125;28;20447;-77
2022/06/14 03:27:28;;;;;;;11.43;8.40;;;;;;;-143.84;71.97;45089.06;5011263;28;20438;-75
2022/06/14 03:30:01;;;;;;;12.23;7.87;;;;;;;-143.84;71.43;45035.75;5008541;28;20983;-75
2022/06/14 03:32:34;;;;;;;18.30;6.77;;;;;;;-143.84;71.63;45066.22;5018780;28;20504;-77
2022/06/14 03:35:07;;;;;;;7.93;7.23;;;;;;;-143.84;71.07;45064.31;5015744;28;20492;-77
2022/06/14 03:37:35;;;;;;;8.87;7.70;;;;;;;-143.84;69.95;45018.59;5018080;28;20489;-77
2022/06/14 03:40:07;;;;;;;8.13;7.13;;;;;;;-143.84;69.45;45030.03;5015265;28;20898;-78
2022/06/14 03:42:37;;;;;;;10.80;7.13;;;;;;;-143.84;68.83;45049.06;5017525;28;20444;-76
2022/06/14 03:45:07;;;;;;;8.90;8.00;;;;;;;-143.84;68.22;45010.97;5013278;28;20452;-78
2022/06/14 03:47:35;;;;;;;8.10;7.40;;;;;;;-143.84;67.93;45041.44;5017432;28;20851;-78
2022/06/14 03:50:07;;;;;;;8.40;7.40;;;;;;;-143.84;68.12;45037.66;5009796;28;20468;-77
2022/06/14 03:52:50;;;;;;;7.77;7.07;;;;;;;-143.84;67.80;45037.66;5009794;28;20814;-77
2022/06/14 03:55:36;;;;;;;16.93;8.60;;;;;;;-143.84;67.21;45062.41;5019013;28;20504;-76
2022/06/14 03:58:25;;;;;;;9.20;7.70;;;;;;;-143.84;66.13;45024.31;5021395;28;21007;-78
2022/06/14 04:00:57;;;;;;;7.87;7.20;;;;;;;-143.84;64.27;45033.84;5011572;28;20440;-76
2022/06/14 04:03:47;;;;;;;8.13;7.10;;;;;;;-143.84;62.77;45018.59;5009444;28;20805;-76
2022/06/14 04:06:23;;;;;;;10.10;7.60;;;;;;;-143.84;61.77;45010.97;5009601;28;20451;-76
2022/06/14 04:09:02;;;;;;;7.47;6.77;;;;;;;-143.84;61.33;45022.41;5010958;28;20945;-77
2022/06/14 04:11:40;;;;;;;10.20;7.60;;;;;;;-143.84;60.78;45039.53;5011284;28;21075;-76
2022/06/14 04:14:30;;;;;;;8.77;6.70;;;;;;;-143.84;61.41;45003.38;5008793;28;20428;-77
2022/06/14 04:17:10;;;;;;;9.20;7.13;;;;;;;-143.84;61.42;45041.44;5008398;28;20963;-77
2022/06/14 04:19:50;;;;;;;8.03;7.23;;;;;;;-143.84;60.98;45012.88;5008366;28;20955;-77
2022/06/14 04:22:24;;;;;;;9.83;6.67;;;;;;;-143.84;60.75;45031.94;5008508;28;20496;-80
2022/06/14 04:24:57;;;;;;;12.53;6.53;;;;;;;-143.84;60.13;44999.56;5009188;28;20439;-78
2022/06/14 04:27:34;;;;;;;7.57;6.77;;;;;;;-143.84;59.81;45009.09;5008936;28;20504;-75
2022/06/14 04:30:10;;;;;;;8.53;6.93;;;;;;;-143.84;59.38;45014.78;5008734;28;20435;-77
2022/06/14 04:32:45;;;;;;;8.10;6.73;;;;;;;-143.84;59.45;45009.09;5010649;28;20870;-76
2022/06/14 04:35:16;;;;;;;10.03;6.80;;;;;;;-143.84;59.25;45003.38;5006842;28;20486;-77
2022/06/14 04:37:48;;;;;;;7.60;6.67;;;;;;;-143.84;59.25;44995.75;5008817;28;20820;-76
2022/06/14 04:40:21;;;;;;;13.10;6.90;;;;;;;-143.84;58.50;44990.03;5004342;28;21134;-79
2022/06/14 04:42:53;;;;;;;7.00;6.27;;;;;;;-143.84;57.85;45003.38;5012108;28;20485;-80
2022/06/14 04:45:27;;;;;;;7.53;6.73;;;;;;;-143.84;58.76;45001.47;5012557;28;20845;-80
2022/06/14 04:47:59;;;;;;;7.00;6.40;;;;;;;-143.84;59.36;45005.28;5010509;28;20544;-80
2022/06/14 04:50:31;;;;;;;9.87;6.73;;;;;;;-143.84;60.35;44991.94;5012819;28;20492;-80
2022/06/14 04:53:03;;;;;;;7.70;7.07;;;;;;;-143.84;61.64;45003.38;5012199;28;20528;-79
2022/06/14 04:55:34;;;;;;;10.10;7.07;;;;;;;-143.84;62.40;44991.94;5012020;28;20500;-79
2022/06/14 04:58:10;;;;;;;7.10;6.43;;;;;;;-143.84;62.00;45001.47;5011615;28;20443;-76
2022/06/14 05:00:43;;;;;;;8.83;7.03;;;;;;;-143.84;61.69;45020.50;5013750;28;20424;-76
2022/06/14 05:03:17;;;;;;;9.63;6.93;;;;;;;-143.84;60.56;45007.19;5013681;28;20467;-75
2022/06/14 05:05:48;;;;;;;8.57;6.67;;;;;;;-143.84;60.23;44991.94;5013352;28;20508;-76
2022/06/14 05:08:18;;;;;;;9.70;6.90;;;;;;;-143.84;59.76;45022.41;5012874;28;20780;-75
2022/06/14 05:10:50;;;;;;;8.77;6.87;;;;;;;-143.84;59.11;44980.53;5015139;28;20443;-76
2022/06/14 05:13:25;;;;;;;8.20;6.60;;;;;;;-143.84;58.13;44999.56;5014566;28;20925;-76
2022/06/14 05:15:58;;;;;;;13.77;7.60;;;;;;;-143.84;56.80;44959.56;5015089;28;20475;-77
2022/06/14 05:18:31;;;;;;;11.93;6.80;;;;;;;-143.84;56.20;44978.63;5011176;28;20527;-77
2022/06/14 05:21:04;;;;;;;9.90;6.80;;;;;;;-143.84;55.38;44986.22;5010751;28;20447;-79
2022/06/14 05:23:36;;;;;;;7.53;6.93;;;;;;;-143.84;54.58;44969.09;5011747;28;20436;-73
2022/06/14 05:26:14;;;;;;;12.30;7.03;;;;;;;-143.84;53.98;44969.09;5013108;28;20439;-77
2022/06/14 05:28:54;;;;;;;8.10;6.90;;;;;;;-143.84;52.98;44934.81;5012072;28;20436;-76
2022/06/14 05:31:30;;;;;;;17.27;6.90;;;;;;;-143.84;52.11;44959.56;5012008;28;20458;-77
2022/06/14 05:34:03;;;;;;;11.03;7.10;;;;;;;-143.84;52.53;44982.41;5011373;28;20443;-77
2022/06/14 05:36:35;;;;;;;7.40;6.77;;;;;;;-143.84;51.15;44944.34;5010490;28;20482;-75
2022/06/14 05:39:07;;;;;;;6.83;6.40;;;;;;;-143.84;50.29;44929.09;5012486;28;20534;-75
2022/06/14 05:41:39;;;;;;;11.63;7.10;;;;;;;-143.84;49.14;44942.44;5015223;28;20455;-77
2022/06/14 05:44:10;;;;;;;6.83;6.17;;;;;;;-143.84;48.48;44934.81;5015812;28;20497;-75
2022/06/14 05:46:46;;;;;;;6.10;5.60;;;;;;;-143.84;48.66;44936.72;5016198;28;20474;-76
2022/06/14 05:49:21;;;;;;;7.03;6.23;;;;;;;-143.84;48.10;44906.25;5015929;28;20451;-76
2022/06/14 05:51:53;;;;;;;15.60;6.13;;;;;;;-143.84;47.30;44929.09;5016465;28;20452;-76
2022/06/14 05:54:27;;;;;;;6.03;5.50;;;;;;;-143.84;47.01;44946.25;5016889;28;20454;-76
2022/06/14 05:57:00;;;;;;;10.80;6.00;;;;;;;-143.84;45.77;44932.91;5017864;28;20478;-76
2022/06/14 05:59:34;;;;;;;6.70;6.07;;;;;;;-143.84;45.93;44898.66;5017363;28;20444;-76
2022/06/14 06:02:12;;;;;;;6.63;5.53;;;;;;;-143.84;45.41;44944.34;5017278;28;20479;-76
2022/06/14 06:04:45;;;;;;;13.43;5.90;;;;;;;-143.84;44.75;44904.34;5003504;28;20487;-76
2022/06/14 06:07:16;;;;;;;6.40;5.83;;;;;;;-143.84;44.78;44919.59;4996195;28;20452;-75
2022/06/14 06:09:50;;;;;;;6.70;6.00;;;;;;;-143.84;44.75;44931.00;5002089;28;20974;-76
2022/06/14 06:12:26;;;;;;;8.00;6.90;;;;;;;-143.84;44.01;44896.75;5012600;28;20443;-76
2022/06/14 06:14:58;;;;;;;6.27;5.67;;;;;;;-143.84;45.22;44906.25;5015775;28;20436;-76
2022/06/14 06:17:31;;;;;;;10.53;5.83;;;;;;;-143.84;44.38;44913.88;5017958;28;21090;-77
2022/06/14 06:20:09;;;;;;;6.27;5.77;;;;;;;-143.84;44.07;44898.66;5022267;28;20450;-77
2022/06/14 06:22:41;;;;;;;8.83;5.80;;;;;;;-143.84;43.98;44891.03;5020822;28;20461;-76
2022/06/14 06:25:32;;;;;;;7.20;5.67;;;;;;;-143.84;43.28;44866.28;5021861;28;20530;-76
2022/06/14 06:28:06;;;;;;;9.30;6.10;;;;;;;-143.84;42.79;44862.47;5018139;28;20924;-77
2022/06/14 06:30:39;;;;;;;6.50;5.87;;;;;;;-143.84;43.64;44898.66;5022875;28;20443;-76
2022/06/14 06:33:13;;;;;;;9.23;6.07;;;;;;;-143.84;42.91;44881.50;5022410;28;20448;-78
2022/06/14 06:35:46;;;;;;;18.37;6.60;;;;;;;-143.84;42.85;44873.88;5020588;28;20524;-77
2022/06/14 06:38:26;;;;;;;5.80;5.30;;;;;;;-143.84;42.33;44902.44;5020878;28;20471;-77
2022/06/14 06:43:48;;;;;;;7.63;5.50;;;;;;;-143.84;40.66;44870.09;5020607;28;20518;-77
2022/06/14 06:46:17;;;;;;;6.33;5.80;;;;;;;-143.84;41.06;44883.41;5007897;28;20470;-76
2022/06/14 06:48:52;;;;;;;6.57;5.97;;;;;;;-143.84;40.99;44849.13;5007797;28;20969;-76
2022/06/14 06:51:25;;;;;;;6.93;5.83;;;;;;;-143.84;40.63;44843.44;5008829;28;20435;-76
2022/06/14 06:54:02;;;;;;;9.10;6.53;;;;;;;-143.84;40.37;44841.53;5009352;28;20440;-76
2022/06/14 06:56:34;;;;;;;12.63;5.53;;;;;;;-143.84;40.89;44868.19;5008721;28;20482;-75
2022/06/14 06:59:08;;;;;;;6.70;6.03;;;;;;;-143.84;41.20;44854.84;5008399;28;20477;-76
2022/06/14 07:01:38;;;;;;;8.13;6.37;;;;;;;-143.84;41.19;44852.94;5007851;28;21017;-76
2022/06/14 07:04:14;;;;;;;7.77;5.57;;;;;;;-143.84;40.97;44841.53;5007692;28;20490;-76
2022/06/14 07:06:45;;;;;;;6.60;6.00;;;;;;;-143.84;40.46;44828.19;5008074;28;20945;-75
2022/06/14 07:09:17;;;;;;;15.17;6.17;;;;;;;-143.84;41.88;44849.13;5008031;28;20463;-77
2022/06/14 07:11:50;;;;;;;13.70;6.30;;;;;;;-143.84;41.03;44837.72;5008587;28;20949;-76
2022/06/14 07:14:23;;;;;;;7.47;6.40;;;;;;;-143.84;41.44;44839.63;5008003;28;20447;-76
2022/06/14 07:16:58;;;;;;;6.87;6.37;;;;;;;-143.84;41.35;44807.25;5007892;28;20476;-76
2022/06/14 07:19:37;;;;;;;6.33;5.73;;;;;;;-143.84;39.72;44824.38;5007794;28;20461;-76
2022/06/14 07:22:13;;;;;;;5.83;5.43;;;;;;;-143.84;39.90;44832.00;5004993;28;20451;-76
2022/06/14 07:24:51;;;;;;;9.00;5.90;;;;;;;-143.84;40.92;44828.19;5008000;28;20511;-76
2022/06/14 07:27:23;;;;;;;7.47;6.20;;;;;;;-143.84;40.00;44833.91;5007598;28;20458;-76
2022/06/14 07:29:58;;;;;;;7.13;5.20;;;;;;;-143.84;40.38;44811.06;5007973;28;20444;-76
2022/06/14 07:32:27;;;;;;;7.10;5.10;;;;;;;-143.84;38.63;44795.81;5004161;28;21435;-77
2022/06/14 07:34:56;;;;;;;11.20;5.50;;;;;;;-143.84;39.08;44858.66;5008026;28;20793;-76
2022/06/14 07:37:32;;;;;;;5.63;5.13;;;;;;;-143.84;38.43;44797.72;5007073;28;20536;-76
2022/06/14 07:40:05;;;;;;;8.00;5.43;;;;;;;-143.84;38.27;44793.91;5005181;28;20868;-76
2022/06/14 07:42:40;;;;;;;10.07;5.30;;;;;;;-143.84;38.32;44795.81;5006839;28;20447;-76
2022/06/14 07:45:17;;;;;;;11.40;4.77;;;;;;;-143.84;38.19;44792.00;5005933;28;20443;-76
2022/06/14 07:47:49;;;;;;;7.63;5.50;;;;;;;-143.84;38.36;44799.63;5007120;28;21266;-77
2022/06/14 07:50:22;;;;;;;5.20;4.90;;;;;;;-143.84;37.05;44792.00;5008033;28;20443;-76
2022/06/14 07:53:02;;;;;;;5.40;4.90;;;;;;;-143.84;36.78;44805.34;5007530;28;20456;-76
2022/06/14 07:55:34;;;;;;;5.13;4.73;;;;;;;-143.84;37.27;44832.00;5008393;28;20455;-76
2022/06/14 07:58:06;;;;;;;5.47;4.93;;;;;;;-143.84;36.81;44822.47;5008169;28;20491;-76
2022/06/14 08:03:30;;;;;;;5.40;4.60;;;;;;;-143.84;38.21;44820.56;5007422;28;20596;-76
2022/06/14 08:06:03;;;;;;;14.23;5.00;;;;;;;-143.84;38.73;44833.91;5008599;28;20443;-76
2022/06/14 08:08:36;;;;;;;7.10;4.20;;;;;;;-143.84;38.57;44778.69;4993078;28;20446;-76
2022/06/14 08:11:07;;;;;;;4.30;3.90;;;;;;;-143.84;37.14;44803.44;5005233;28;20439;-76
2022/06/14 08:13:41;;;;;;;4.93;4.50;;;;;;;-143.84;37.57;44824.38;5008066;28;20451;-76
2022/06/14 08:16:11;;;;;;;9.00;5.07;;;;;;;-143.84;36.72;44845.31;5007079;28;20455;-77
2022/06/14 08:18:42;;;;;;;11.50;5.03;;;;;;;-143.84;37.65;44824.38;5007659;28;20963;-76
2022/06/14 08:21:17;;;;;;;21.77;5.23;;;;;;;-143.84;37.87;44820.56;5007251;28;20451;-76
2022/06/14 08:23:49;;;;;;;4.37;4.03;;;;;;;-143.84;38.00;44830.09;5007770;28;21033;-76
2022/06/14 08:26:24;;;;;;;9.50;4.57;;;;;;;-143.84;39.15;44849.13;5008281;28;20451;-76
2022/06/14 08:28:57;;;;;;;5.17;4.67;;;;;;;-143.84;39.09;44833.91;5007822;28;20451;-76
2022/06/14 08:31:32;;;;;;;10.80;5.20;;;;;;;-143.84;39.00;44847.22;5007206;28;20451;-76
2022/06/14 08:34:05;;;;;;;7.50;4.90;;;;;;;-143.84;38.67;44843.44;5006405;28;20458;-76
2022/06/14 08:36:40;;;;;;;8.50;3.90;;;;;;;-143.84;38.34;44864.38;5007945;28;21017;-76
2022/06/14 08:39:12;;;;;;;4.33;3.93;;;;;;;-143.84;38.87;44839.63;5007643;28;20439;-76
2022/06/14 08:41:58;;;;;;;5.83;4.50;;;;;;;-143.84;38.84;44858.66;5007481;28;20914;-79
2022/06/14 08:44:31;;;;;;;5.80;4.20;;;;;;;-143.84;40.01;44835.81;4996424;28;20509;-76
2022/06/14 08:47:11;;;;;;;6.10;4.70;;;;;;;-143.84;38.22;44852.94;4988360;28;20895;-75
2022/06/14 08:49:47;;;;;;;6.23;4.13;;;;;;;-143.84;39.62;44812.97;4988097;28;20511;-76
2022/06/14 08:52:51;;;;;;;5.30;4.57;;;;;;;-143.84;41.27;44862.47;4988763;28;20456;-77
2022/06/14 08:55:57;;;;;;;5.17;4.67;;;;;;;-143.84;39.59;44864.38;4987881;28;20451;-76
2022/06/14 08:58:43;;;;;;;6.10;4.83;;;;;;;-143.84;39.07;44828.19;4988962;28;20487;-76
2022/06/14 09:01:19;;;;;;;5.17;4.77;;;;;;;-143.84;39.47;44839.63;4987324;28;20440;-76
2022/06/14 09:04:23;;;;;;;4.37;4.07;;;;;;;-143.84;37.95;44843.44;4987811;28;20495;-76
2022/06/14 09:07:23;;;;;;;7.53;3.83;;;;;;;-143.84;38.27;44841.53;4988449;28;21052;-76
2022/06/14 09:10:19;;;;;;;4.17;3.87;;;;;;;-143.84;38.02;44847.22;5023561;28;20447;-76
2022/06/14 09:13:21;;;;;;;4.57;4.27;;;;;;;-143.84;38.20;44856.75;5002503;28;20472;-76
2022/06/14 09:16:26;;;;;;;5.10;4.50;;;;;;;-143.84;39.53;44856.75;5009003;28;20455;-76
2022/06/14 09:19:08;;;;;;;10.60;4.70;;;;;;;-143.84;39.41;44849.13;5020074;28;20828;-76
2022/06/14 09:22:00;;;;;;;4.83;4.30;;;;;;;-143.84;39.79;44824.38;5017448;28;20463;-76
2022/06/14 09:24:53;;;;;;;4.80;4.40;;;;;;;-143.84;40.35;44849.13;5029755;28;20453;-76
2022/06/14 09:27:40;;;;;;;8.93;5.80;;;;;;;-143.84;41.13;44809.16;5016836;28;20456;-76
2022/06/14 09:30:33;;;;;;;5.70;4.23;;;;;;;-143.84;41.59;44862.47;5013030;28;20973;-76
2022/06/14 09:33:35;;;;;;;8.80;5.40;;;;;;;-143.84;40.88;44847.22;5018084;28;20451;-76
2022/06/14 09:36:37;;;;;;;8.57;4.07;;;;;;;-143.84;38.57;44830.09;5028111;28;20832;-76
2022/06/14 09:39:34;;;;;;;7.97;4.27;;;;;;;-143.84;39.09;44856.75;5029377;28;20451;-76
2022/06/14 09:42:27;;;;;;;9.13;4.30;;;;;;;-143.84;39.58;44822.47;5008266;28;20448;-76
2022/06/14 09:45:21;;;;;;;4.10;3.80;;;;;;;-143.84;38.68;44830.09;5026775;28;20974;-76
2022/06/14 09:48:19;;;;;;;5.00;4.50;;;;;;;-143.84;40.26;44828.19;5010447;28;20462;-76
2022/06/14 09:51:08;;;;;;;5.00;4.47;;;;;;;-143.84;39.43;44847.22;5008878;28;20444;-76
2022/06/14 09:54:06;;;;;;;4.30;4.00;;;;;;;-143.84;39.06;44835.81;5009231;28;20938;-76
2022/06/14 09:56:55;;;;;;;6.10;4.33;;;;;;;-143.84;39.57;44835.81;5008670;28;20459;-76
2022/06/14 09:59:52;;;;;;;4.90;4.40;;;;;;;-143.84;40.37;44866.28;5008685;28;20448;-76
2022/06/14 10:02:41;;;;;;;11.00;4.40;;;;;;;-143.84;39.14;44851.03;5010422;28;20459;-76
2022/06/14 10:05:28;;;;;;;6.97;3.77;;;;;;;-143.84;37.96;44879.59;5008902;28;20572;-76
2022/06/14 10:08:32;;;;;;;4.30;3.90;;;;;;;-143.84;38.26;44837.72;5010344;28;20466;-76
2022/06/14 10:11:17;;;;;;;8.40;4.30;;;;;;;-143.84;37.42;44845.31;5007531;28;20554;-75
2022/06/14 10:14:13;;;;;;;4.67;4.00;;;;;;;-143.84;38.38;44835.81;5040248;28;20447;-76
2022/06/14 10:17:23;;;;;;;8.13;4.27;;;;;;;-143.84;39.57;44828.19;5008688;28;20475;-76
2022/06/14 10:20:30;;;;;;;4.40;4.00;;;;;;;-143.84;38.55;44843.44;5011780;28;20871;-75
2022/06/14 10:23:11;;;;;;;4.80;3.80;;;;;;;-143.84;37.27;44835.81;4982697;28;20463;-76
2022/06/14 10:28:11;;;;;;;6.43;4.33;;;;;;;-143.84;37.23;44835.81;5008145;28;20461;-76
2022/06/14 10:28:46;;;;;;;8.20;4.30;;;;;;;-143.84;37.50;44837.72;5007554;28;20446;-75
2022/06/14 10:31:23;;;;;;;4.80;4.40;;;;;;;-143.84;38.26;44828.19;5007126;28;20977;-75
2022/06/14 10:33:54;;;;;;;7.53;4.23;;;;;;;-143.84;37.32;44824.38;5007799;28;20455;-76
2022/06/14 10:36:46;;;;;;;7.17;3.90;;;;;;;-143.84;38.46;44849.13;5008185;28;20795;-76
2022/06/14 10:39:45;;;;;;;5.63;4.30;;;;;;;-143.84;38.12;44862.47;5006628;28;20439;-76
2022/06/14 10:42:19;;;;;;;11.13;4.40;;;;;;;-143.84;38.82;44818.66;5006584;28;20439;-76
2022/06/14 10:44:54;;;;;;;4.97;4.60;;;;;;;-143.84;38.87;44832.00;5002645;28;20958;-77
2022/06/14 10:47:35;;;;;;;4.87;4.47;;;;;;;-143.84;38.46;44839.63;5006689;28;21095;-77
2022/06/14 10:50:34;;;;;;;4.20;3.80;;;;;;;-143.84;39.97;44837.72;5006351;28;20468;-77
2022/06/14 10:53:29;;;;;;;4.40;4.10;;;;;;;-143.84;38.35;44814.88;5008093;28;20456;-74
2022/06/14 10:56:15;;;;;;;5.00;4.50;;;;;;;-143.84;39.02;44828.19;5008580;28;20448;-77
2022/06/14 10:59:06;;;;;;;4.80;4.50;;;;;;;-143.84;39.96;44854.84;5007464;28;20483;-77
2022/06/14 11:01:50;;;;;;;5.03;4.53;;;;;;;-143.84;40.66;44856.75;5007290;28;20448;-76
2022/06/14 11:04:26;;;;;;;6.00;5.10;;;;;;;-143.84;38.38;44839.63;5010458;28;20483;-78
2022/06/14 11:07:32;;;;;;;5.30;4.90;;;;;;;-143.84;38.83;44851.03;5013614;28;20492;-77
2022/06/14 11:10:20;;;;;;;4.77;4.37;;;;;;;-143.84;39.34;44828.19;4980859;28;20886;-76
2022/06/14 11:12:57;;;;;;;5.80;5.10;;;;;;;-143.84;38.42;44832.00;5006525;28;20469;-75
2022/06/14 11:15:36;;;;;;;5.43;4.77;;;;;;;-143.84;39.28;44875.78;5007244;28;20533;-75
2022/06/14 11:18:38;;;;;;;5.53;4.53;;;;;;;-143.84;38.30;44875.78;5006292;28;20483;-75
2022/06/14 11:21:16;;;;;;;5.43;4.90;;;;;;;-143.84;40.28;44854.84;4991576;28;20455;-75
2022/06/14 11:23:50;;;;;;;4.90;4.43;;;;;;;-143.84;38.16;44849.13;5005553;28;20451;-74
2022/06/14 11:26:27;;;;;;;5.10;4.70;;;;;;;-143.84;38.44;44852.94;5006448;28;20833;-74
2022/06/14 11:29:02;;;;;;;5.33;4.97;;;;;;;-143.84;39.21;44835.81;5008389;28;20554;-75
2022/06/14 11:31:33;;;;;;;6.10;5.50;;;;;;;-143.84;39.10;44845.31;5006694;28;20463;-75
2022/06/14 11:34:27;;;;;;;5.03;4.73;;;;;;;-143.84;40.62;44849.13;5006606;28;20452;-75
2022/06/14 11:37:15;;;;;;;6.33;4.90;;;;;;;-143.84;39.76;44845.31;5007983;28;20535;-75
2022/06/14 11:39:48;;;;;;;5.70;5.20;;;;;;;-143.84;39.58;44856.75;5007925;28;20458;-75
2022/06/14 11:42:23;;;;;;;5.50;5.10;;;;;;;-143.84;39.75;44828.19;5007409;28;20527;-75
2022/06/14 11:45:10;;;;;;;7.80;5.57;;;;;;;-143.84;39.64;44824.38;5004890;28;20961;-75
2022/06/14 11:47:45;;;;;;;5.80;5.13;;;;;;;-143.84;39.77;44835.81;5004541;28;20483;-76
2022/06/14 11:50:37;;;;;;;5.87;5.27;;;;;;;-143.84;40.36;44835.81;5004748;28;20451;-75
2022/06/14 11:53:31;;;;;;;6.43;5.60;;;;;;;-143.84;40.86;44871.97;5003972;28;20463;-76
2022/06/14 11:56:06;;;;;;;13.80;5.13;;;;;;;-143.84;39.35;44860.56;5008269;28;20455;-75
2022/06/14 11:58:50;;;;;;;10.07;5.57;;;;;;;-143.84;38.54;44866.28;5006849;28;20478;-75
2022/06/14 12:01:29;;;;;;;8.93;4.70;;;;;;;-143.84;38.74;44837.72;5007309;28;20877;-76
2022/06/14 12:04:17;;;;;;;6.47;5.87;;;;;;;-143.84;39.39;44856.75;5007184;28;20483;-75
2022/06/14 12:06:54;;;;;;;6.37;4.70;;;;;;;-143.84;39.27;44864.38;5007441;28;20805;-75
2022/06/14 12:09:44;;;;;;;5.10;4.70;;;;;;;-143.84;37.94;44870.09;5007658;28;20440;-76
2022/06/14 12:12:21;;;;;;;6.37;5.40;;;;;;;-143.84;38.21;44814.88;5007544;28;20443;-75